createdAt,value
2022-10-15T00:00:08.416Z,14.01
2022-10-15T00:02:35.211Z,14.08
2022-10-15T00:05:01.973Z,13.82
2022-10-15T00:07:29.572Z,14.28
2022-10-15T00:09:56.335Z,14.40
2022-10-15T00:12:23.186Z,14.32
2022-10-15T00:14:49.922Z,14.50
2022-10-15T00:17:16.739Z,14.20
2022-10-15T00:19:43.513Z,14.00
2022-10-15T00:22:10.328Z,14.37
2022-10-15T00:24:37.561Z,14.03
2022-10-15T00:27:04.413Z,14.15
2022-10-15T00:29:31.124Z,13.99
2022-10-15T00:31:57.958Z,14.05
2022-10-15T00:34:24.690Z,14.61
2022-10-15T00:36:51.465Z,14.16
2022-10-15T00:39:18.532Z,13.96
2022-10-15T00:41:45.603Z,14.39
2022-10-15T00:44:21.313Z,14.55
2022-10-15T00:46:54.002Z,14.37
2022-10-15T00:49:34.342Z,14.19
2022-10-15T00:52:08.418Z,14.16
2022-10-15T00:54:38.502Z,14.61
2022-10-15T00:57:08.711Z,14.43
2022-10-15T00:59:37.618Z,14.48
2022-10-15T01:02:04.622Z,14.26
2022-10-15T01:04:31.670Z,14.59
2022-10-15T01:06:58.549Z,14.47
2022-10-15T01:09:25.389Z,14.61
2022-10-15T01:11:53.060Z,14.56
2022-10-15T01:14:34.762Z,14.69
2022-10-15T01:17:13.872Z,14.90
2022-10-15T01:20:15.082Z,14.60
2022-10-15T01:23:02.113Z,14.74
2022-10-15T01:25:41.089Z,14.86
2022-10-15T01:28:19.458Z,14.48
2022-10-15T01:30:49.600Z,14.48
2022-10-15T01:33:32.121Z,14.63
2022-10-15T01:36:09.829Z,14.37
2022-10-15T01:38:42.330Z,14.39
2022-10-15T01:41:12.523Z,14.59
2022-10-15T01:43:47.046Z,14.70
2022-10-15T01:46:44.786Z,14.21
2022-10-15T01:49:13.879Z,14.38
2022-10-15T01:51:41.757Z,14.70
2022-10-15T01:54:12.184Z,14.51
2022-10-15T01:56:39.691Z,14.23
2022-10-15T01:59:07.399Z,14.48
2022-10-15T02:01:34.253Z,14.70
2022-10-15T02:04:01.137Z,14.94
2022-10-15T02:07:00.013Z,14.98
2022-10-15T02:09:54.991Z,14.52
2022-10-15T02:12:46.755Z,14.88
2022-10-15T02:15:37.936Z,14.96
2022-10-15T02:18:15.946Z,14.81
2022-10-15T02:20:52.352Z,14.58
2022-10-15T02:23:28.173Z,14.44
2022-10-15T02:25:55.499Z,14.60
2022-10-15T02:28:23.762Z,14.81
2022-10-15T02:30:53.070Z,14.63
2022-10-15T02:33:20.911Z,14.74
2022-10-15T02:35:48.557Z,14.78
2022-10-15T02:38:18.808Z,14.63
2022-10-15T02:40:46.574Z,14.97
2022-10-15T02:43:15.761Z,14.78
2022-10-15T02:45:42.603Z,14.64
2022-10-15T02:48:09.317Z,14.61
2022-10-15T02:50:36.095Z,14.75
2022-10-15T02:53:02.962Z,14.49
2022-10-15T02:55:30.013Z,14.57
2022-10-15T02:57:57.816Z,14.82
2022-10-15T03:00:25.002Z,14.70
2022-10-15T03:02:51.973Z,15.07
2022-10-15T03:05:19.126Z,14.96
2022-10-15T03:07:45.911Z,14.85
2022-10-15T03:10:12.707Z,14.57
2022-10-15T03:12:39.411Z,14.84
2022-10-15T03:15:06.958Z,14.98
2022-10-15T03:17:33.738Z,14.90
2022-10-15T03:20:00.474Z,14.98
2022-10-15T03:22:27.303Z,14.82
2022-10-15T03:25:00.158Z,14.97
2022-10-15T03:27:27.531Z,15.20
2022-10-15T03:29:54.498Z,14.93
2022-10-15T03:32:21.450Z,14.94
2022-10-15T03:34:48.323Z,14.66
2022-10-15T03:37:15.053Z,14.67
2022-10-15T03:39:42.172Z,14.91
2022-10-15T03:42:08.956Z,14.98
2022-10-15T03:44:35.830Z,14.87
2022-10-15T03:47:08.919Z,14.88
2022-10-15T03:49:35.736Z,14.72
2022-10-15T03:52:02.529Z,14.88
2022-10-15T03:54:29.783Z,14.94
2022-10-15T03:56:58.574Z,14.99
2022-10-15T03:59:25.381Z,14.97
2022-10-15T04:01:52.186Z,14.91
2022-10-15T04:04:19.211Z,14.88
2022-10-15T04:06:48.000Z,14.68
2022-10-15T04:09:15.801Z,14.71
2022-10-15T04:11:42.623Z,14.89
2022-10-15T04:14:09.423Z,14.93
2022-10-15T04:16:36.292Z,14.74
2022-10-15T04:19:12.082Z,14.86
2022-10-15T04:21:39.392Z,14.98
2022-10-15T04:24:06.375Z,14.68
2022-10-15T04:26:33.158Z,14.89
2022-10-15T04:28:59.982Z,15.16
2022-10-15T04:31:42.172Z,15.17
2022-10-15T04:34:09.274Z,14.90
2022-10-15T04:36:54.238Z,14.69
2022-10-15T04:39:21.682Z,15.13
2022-10-15T04:41:49.525Z,14.68
2022-10-15T04:44:16.260Z,14.81
2022-10-15T04:46:43.032Z,14.92
2022-10-15T04:49:09.725Z,15.09
2022-10-15T04:51:36.667Z,15.01
2022-10-15T04:54:03.750Z,15.22
2022-10-15T04:56:30.531Z,14.84
2022-10-15T04:58:57.256Z,14.78
2022-10-15T05:01:24.203Z,14.68
2022-10-15T05:03:50.956Z,14.89
2022-10-15T05:06:20.957Z,15.10
2022-10-15T05:08:49.082Z,14.84
2022-10-15T05:11:18.468Z,14.98
2022-10-15T05:13:45.595Z,14.99
2022-10-15T05:16:24.181Z,14.92
2022-10-15T05:18:54.371Z,14.69
2022-10-15T05:21:21.192Z,14.72
2022-10-15T05:23:50.260Z,15.21
2022-10-15T05:26:22.632Z,15.01
2022-10-15T05:28:50.259Z,14.98
2022-10-15T05:31:19.799Z,15.01
2022-10-15T05:33:48.005Z,15.14
2022-10-15T05:36:29.406Z,14.98
2022-10-15T05:38:58.302Z,14.80
2022-10-15T05:41:25.991Z,14.81
2022-10-15T05:43:54.316Z,14.97
2022-10-15T05:46:21.308Z,15.21
2022-10-15T05:48:51.195Z,15.08
2022-10-15T05:51:18.500Z,14.94
2022-10-15T05:53:46.569Z,14.94
2022-10-15T05:56:14.594Z,14.82
2022-10-15T05:58:41.432Z,14.90
2022-10-15T06:01:10.373Z,15.24
2022-10-15T06:03:37.917Z,14.91
2022-10-15T06:06:05.036Z,15.04
2022-10-15T06:08:34.008Z,14.93
2022-10-15T06:11:08.335Z,14.75
2022-10-15T06:13:40.241Z,14.84
2022-10-15T06:16:07.573Z,15.12
2022-10-15T06:18:34.351Z,14.88
2022-10-15T06:21:01.167Z,15.15
2022-10-15T06:23:28.117Z,15.17
2022-10-15T06:25:55.255Z,15.24
2022-10-15T06:28:22.111Z,15.26
2022-10-15T06:30:48.996Z,15.11
2022-10-15T06:33:17.279Z,15.12
2022-10-15T06:35:44.255Z,15.24
2022-10-15T06:38:11.683Z,14.93
2022-10-15T06:40:45.124Z,14.91
2022-10-15T06:43:12.193Z,15.19
2022-10-15T06:45:41.927Z,14.91
2022-10-15T06:48:09.189Z,15.24
2022-10-15T06:50:37.466Z,15.25
2022-10-15T06:53:07.127Z,15.30
2022-10-15T06:55:34.210Z,15.39
2022-10-15T06:58:01.041Z,15.06
2022-10-15T07:00:30.169Z,15.04
2022-10-15T07:02:56.981Z,15.20
2022-10-15T07:05:23.991Z,15.31
2022-10-15T07:07:55.191Z,15.44
2022-10-15T07:10:23.149Z,15.43
2022-10-15T07:12:50.258Z,15.52
2022-10-15T07:15:17.728Z,15.29
2022-10-15T07:17:57.054Z,15.30
2022-10-15T07:20:24.500Z,15.57
2022-10-15T07:22:52.330Z,15.59
2022-10-15T07:25:19.614Z,15.66
2022-10-15T07:27:46.744Z,15.50
2022-10-15T07:30:13.522Z,15.52
2022-10-15T07:32:40.369Z,15.99
2022-10-15T07:35:08.048Z,15.83
2022-10-15T07:37:35.314Z,15.96
2022-10-15T07:40:02.118Z,16.06
2022-10-15T07:42:29.082Z,15.87
2022-10-15T07:44:55.912Z,15.96
2022-10-15T07:47:27.293Z,16.03
2022-10-15T07:49:54.208Z,16.07
2022-10-15T07:52:21.282Z,15.98
2022-10-15T07:54:48.464Z,15.89
2022-10-15T07:57:15.426Z,16.24
2022-10-15T07:59:42.277Z,16.08
2022-10-15T08:02:15.761Z,16.44
2022-10-15T08:04:43.135Z,16.03
2022-10-15T08:07:10.438Z,16.20
2022-10-15T08:09:37.690Z,16.20
2022-10-15T08:12:06.389Z,16.54
2022-10-15T08:14:34.480Z,16.43
2022-10-15T08:17:03.053Z,16.15
2022-10-15T08:19:29.961Z,16.40
2022-10-15T08:21:57.150Z,16.58
2022-10-15T08:24:24.438Z,16.58
2022-10-15T08:26:51.261Z,16.60
2022-10-15T08:29:19.412Z,16.46
2022-10-15T08:31:46.445Z,16.43
2022-10-15T08:34:13.224Z,16.54
2022-10-15T08:36:40.077Z,16.73
2022-10-15T08:39:07.702Z,16.58
2022-10-15T08:41:46.682Z,16.57
2022-10-15T08:44:32.634Z,16.46
2022-10-15T08:47:37.226Z,16.80
2022-10-15T08:50:17.382Z,16.96
2022-10-15T08:52:48.975Z,17.40
2022-10-15T08:55:19.530Z,17.20
2022-10-15T08:57:55.730Z,17.48
2022-10-15T09:00:50.008Z,17.57
2022-10-15T09:03:22.938Z,17.58
2022-10-15T09:06:03.162Z,17.69
2022-10-15T09:08:54.438Z,17.38
2022-10-15T09:11:42.574Z,17.72
2022-10-15T09:14:19.040Z,17.79
2022-10-15T09:16:49.842Z,17.54
2022-10-15T09:19:19.679Z,17.44
2022-10-15T09:21:48.475Z,17.32
2022-10-15T09:24:22.092Z,17.61
2022-10-15T09:27:03.365Z,18.00
2022-10-15T09:29:36.169Z,17.89
2022-10-15T09:32:17.214Z,17.88
2022-10-15T09:34:48.287Z,18.24
2022-10-15T09:37:19.881Z,17.95
2022-10-15T09:39:55.462Z,18.12
2022-10-15T09:42:27.958Z,18.35
2022-10-15T09:44:58.600Z,18.30
2022-10-15T09:47:29.185Z,18.40
2022-10-15T09:49:56.049Z,18.66
2022-10-15T09:52:31.457Z,18.53
2022-10-15T09:55:23.767Z,18.52
2022-10-15T09:57:53.714Z,18.64
2022-10-15T10:00:20.874Z,18.35
2022-10-15T10:03:08.354Z,18.37
2022-10-15T10:05:37.183Z,18.49
2022-10-15T10:08:32.806Z,18.40
2022-10-15T10:11:03.426Z,18.29
2022-10-15T10:13:39.561Z,18.23
2022-10-15T10:16:09.412Z,18.26
2022-10-15T10:18:37.801Z,18.61
2022-10-15T10:21:07.339Z,18.72
2022-10-15T10:23:39.589Z,18.87
2022-10-15T10:26:08.386Z,18.27
2022-10-15T10:28:57.160Z,18.31
2022-10-15T10:31:35.871Z,18.37
2022-10-15T10:34:03.277Z,18.76
2022-10-15T10:36:34.016Z,18.68
2022-10-15T10:39:15.481Z,19.23
2022-10-15T10:41:53.996Z,19.14
2022-10-15T10:44:33.816Z,19.51
2022-10-15T10:47:06.584Z,19.42
2022-10-15T10:49:35.934Z,19.10
2022-10-15T10:52:02.709Z,19.19
2022-10-15T10:54:31.001Z,18.95
2022-10-15T10:57:00.111Z,19.20
2022-10-15T10:59:51.126Z,19.08
2022-10-15T11:02:18.092Z,19.11
2022-10-15T11:04:44.935Z,18.75
2022-10-15T11:07:28.209Z,19.01
2022-10-15T11:10:05.917Z,18.64
2022-10-15T11:15:55.517Z,18.85
2022-10-15T11:18:46.912Z,19.35
2022-10-15T11:21:43.077Z,18.87
2022-10-15T11:24:15.658Z,19.12
2022-10-15T11:27:06.570Z,19.47
2022-10-15T11:30:14.436Z,19.40
2022-10-15T11:33:09.457Z,19.36
2022-10-15T11:36:18.207Z,19.40
2022-10-15T11:38:50.874Z,19.50
2022-10-15T11:41:34.644Z,19.79
2022-10-15T11:44:13.235Z,20.09
2022-10-15T11:46:45.678Z,19.75
2022-10-15T11:49:19.571Z,19.80
2022-10-15T11:52:07.876Z,20.04
2022-10-15T11:55:12.969Z,20.36
2022-10-15T11:57:40.472Z,20.20
2022-10-15T12:00:31.001Z,20.80
2022-10-15T12:03:21.038Z,20.32
2022-10-15T12:05:54.993Z,20.82
2022-10-15T12:08:23.949Z,20.90
2022-10-15T12:10:53.311Z,21.31
2022-10-15T12:13:20.029Z,21.51
2022-10-15T12:16:34.461Z,21.49
2022-10-15T12:19:17.896Z,21.68
2022-10-15T12:21:44.569Z,21.98
2022-10-15T12:24:39.783Z,22.15
2022-10-15T12:27:30.143Z,21.90
2022-10-15T12:30:02.907Z,21.71
2022-10-15T12:32:43.318Z,21.26
2022-10-15T12:35:16.190Z,21.51
2022-10-15T12:37:44.814Z,21.39
2022-10-15T12:40:25.297Z,21.71
2022-10-15T12:42:55.680Z,21.22
2022-10-15T12:45:31.403Z,20.93
2022-10-15T12:48:26.483Z,20.86
2022-10-15T12:51:22.137Z,20.84
2022-10-15T12:53:50.330Z,20.54
2022-10-15T12:56:17.087Z,20.70
2022-10-15T12:58:48.599Z,20.67
2022-10-15T13:01:16.391Z,20.81
2022-10-15T13:03:49.449Z,20.12
2022-10-15T13:06:19.081Z,20.35
2022-10-15T13:08:47.983Z,20.23
2022-10-15T13:11:36.670Z,20.32
2022-10-15T13:14:12.639Z,20.66
2022-10-15T13:16:44.735Z,20.37
2022-10-15T13:19:23.735Z,20.12
2022-10-15T13:21:54.199Z,20.13
2022-10-15T13:24:30.125Z,20.20
2022-10-15T13:26:57.945Z,20.27
2022-10-15T13:29:26.281Z,20.11
2022-10-15T13:31:55.561Z,20.22
2022-10-15T13:34:25.216Z,20.40
2022-10-15T13:36:53.543Z,19.95
2022-10-15T13:39:25.098Z,20.52
2022-10-15T13:42:06.393Z,20.33
2022-10-15T13:44:33.630Z,20.24
2022-10-15T13:47:00.461Z,20.08
2022-10-15T13:49:28.939Z,20.30
2022-10-15T13:51:56.049Z,20.41
2022-10-15T13:54:31.647Z,20.88
2022-10-15T13:57:10.914Z,20.50
2022-10-15T13:59:37.692Z,20.86
2022-10-15T14:02:04.591Z,20.71
2022-10-15T14:04:32.846Z,20.82
2022-10-15T14:07:05.707Z,20.68
2022-10-15T14:09:34.511Z,20.86
2022-10-15T14:12:03.405Z,20.45
2022-10-15T14:14:37.801Z,20.71
2022-10-15T14:17:17.576Z,20.31
2022-10-15T14:20:02.143Z,20.15
2022-10-15T14:22:35.519Z,20.06
2022-10-15T14:25:09.599Z,20.13
2022-10-15T14:27:36.776Z,20.30
2022-10-15T14:30:22.891Z,20.10
2022-10-15T14:32:52.952Z,19.41
2022-10-15T14:35:33.227Z,19.32
2022-10-15T14:38:14.566Z,19.73
2022-10-15T14:40:41.501Z,19.38
2022-10-15T14:43:16.948Z,19.31
2022-10-15T14:45:55.992Z,19.26
2022-10-15T14:48:28.702Z,19.40
2022-10-15T14:50:59.554Z,19.28
2022-10-15T14:53:29.290Z,19.30
2022-10-15T14:56:02.035Z,19.35
2022-10-15T14:58:30.124Z,19.35
2022-10-15T15:01:01.860Z,19.48
2022-10-15T15:03:31.273Z,19.45
2022-10-15T15:05:58.695Z,19.56
2022-10-15T15:08:26.224Z,19.19
2022-10-15T15:10:55.791Z,19.56
2022-10-15T15:13:40.437Z,19.16
2022-10-15T15:16:09.205Z,19.72
2022-10-15T15:18:35.942Z,19.46
2022-10-15T15:21:05.025Z,19.57
2022-10-15T15:23:32.263Z,19.43
2022-10-15T15:25:58.994Z,19.70
2022-10-15T15:28:27.700Z,19.92
2022-10-15T15:31:03.164Z,19.85
2022-10-15T15:33:29.870Z,19.93
2022-10-15T15:36:05.176Z,19.79
2022-10-15T15:38:32.100Z,19.71
2022-10-15T15:41:04.000Z,19.87
2022-10-15T15:43:30.969Z,19.75
2022-10-15T15:45:57.633Z,19.57
2022-10-15T15:48:24.275Z,19.53
2022-10-15T15:50:51.888Z,19.59
2022-10-15T15:53:18.645Z,19.64
2022-10-15T15:55:45.260Z,19.48
2022-10-15T15:58:11.962Z,19.55
2022-10-15T16:00:38.560Z,19.58
2022-10-15T16:03:05.253Z,19.38
2022-10-15T16:05:31.994Z,19.17
2022-10-15T16:07:58.695Z,18.93
2022-10-15T16:10:25.495Z,19.00
2022-10-15T16:12:52.455Z,18.93
2022-10-15T16:15:19.097Z,18.82
2022-10-15T16:17:45.707Z,18.88
2022-10-15T16:20:12.955Z,18.88
2022-10-15T16:22:39.693Z,18.86
2022-10-15T16:25:06.905Z,18.86
2022-10-15T16:27:34.621Z,18.81
2022-10-15T16:30:02.370Z,18.59
2022-10-15T16:32:29.029Z,18.63
2022-10-15T16:34:55.693Z,18.45
2022-10-15T16:37:22.471Z,18.01
2022-10-15T16:39:49.297Z,17.88
2022-10-15T16:45:02.481Z,18.07
2022-10-15T16:47:29.322Z,18.03
2022-10-15T16:49:56.083Z,17.97
2022-10-15T16:52:23.037Z,17.97
2022-10-15T16:54:49.829Z,17.96
2022-10-15T16:57:16.569Z,17.90
2022-10-15T16:59:43.245Z,17.72
2022-10-15T17:02:10.032Z,17.68
2022-10-15T17:04:36.710Z,17.63
2022-10-15T17:07:03.370Z,17.63
2022-10-15T17:09:30.777Z,17.51
2022-10-15T17:11:57.433Z,17.52
2022-10-15T17:14:24.054Z,17.40
2022-10-15T17:16:52.685Z,17.37
2022-10-15T17:19:21.951Z,17.19
2022-10-15T17:21:48.637Z,17.17
2022-10-15T17:24:16.520Z,17.14
2022-10-15T17:26:44.143Z,17.15
2022-10-15T17:29:13.349Z,17.15
2022-10-15T17:31:39.982Z,17.16
2022-10-15T17:34:07.993Z,16.98
2022-10-15T17:36:45.428Z,16.86
2022-10-15T17:39:14.501Z,16.77
2022-10-15T17:41:41.355Z,16.72
2022-10-15T17:44:09.028Z,16.93
2022-10-15T17:46:36.042Z,16.98
2022-10-15T17:49:03.684Z,16.82
2022-10-15T17:51:31.729Z,17.03
2022-10-15T17:54:00.017Z,17.09
2022-10-15T17:56:30.189Z,17.01
2022-10-15T17:59:01.045Z,16.90
2022-10-15T18:01:39.241Z,16.98
2022-10-15T18:04:12.990Z,16.85
2022-10-15T18:06:43.525Z,17.02
2022-10-15T18:09:10.323Z,16.89
2022-10-15T18:11:37.082Z,16.84
2022-10-15T18:14:04.089Z,16.88
2022-10-15T18:16:30.747Z,16.77
2022-10-15T18:18:57.461Z,16.82
2022-10-15T18:21:25.349Z,16.84
2022-10-15T18:23:52.070Z,16.75
2022-10-15T18:26:22.366Z,16.63
2022-10-15T18:28:51.623Z,16.61
2022-10-15T18:31:18.727Z,16.43
2022-10-15T18:33:48.905Z,16.52
2022-10-15T18:36:20.507Z,16.39
2022-10-15T18:38:47.216Z,16.25
2022-10-15T18:41:14.701Z,16.31
2022-10-15T18:43:41.444Z,16.36
2022-10-15T18:46:08.170Z,16.45
2022-10-15T18:48:36.781Z,16.43
2022-10-15T18:51:08.148Z,16.43
2022-10-15T18:53:35.777Z,16.38
2022-10-15T18:56:03.774Z,16.30
2022-10-15T18:58:30.404Z,16.36
2022-10-15T19:00:58.220Z,16.33
2022-10-15T19:03:25.219Z,16.25
2022-10-15T19:05:51.858Z,16.24
2022-10-15T19:08:20.828Z,16.14
2022-10-15T19:10:48.152Z,16.16
2022-10-15T19:13:14.802Z,16.04
2022-10-15T19:15:41.433Z,16.01
2022-10-15T19:18:11.446Z,16.10
2022-10-15T19:20:40.403Z,16.09
2022-10-15T19:23:07.041Z,16.03
2022-10-15T19:25:33.944Z,15.96
2022-10-15T19:28:00.749Z,15.99
2022-10-15T19:30:28.526Z,15.92
2022-10-15T19:32:55.185Z,15.91
2022-10-15T19:35:21.877Z,15.91
2022-10-15T19:37:49.061Z,15.85
2022-10-15T19:40:15.729Z,15.77
2022-10-15T19:42:42.363Z,15.73
2022-10-15T19:45:09.370Z,15.81
2022-10-15T19:47:36.064Z,15.80
2022-10-15T19:50:02.839Z,15.79
2022-10-15T19:52:29.484Z,15.68
2022-10-15T19:54:56.095Z,15.47
2022-10-15T19:57:23.516Z,15.56
2022-10-15T19:59:50.494Z,15.53
2022-10-15T20:02:17.128Z,15.51
2022-10-15T20:04:43.733Z,15.37
2022-10-15T20:07:10.388Z,15.47
2022-10-15T20:09:37.141Z,15.45
2022-10-15T20:12:03.770Z,15.40
2022-10-15T20:14:30.478Z,15.35
2022-10-15T20:16:57.109Z,15.31
2022-10-15T20:19:23.761Z,15.32
2022-10-15T20:21:50.833Z,15.26
2022-10-15T20:24:17.537Z,15.24
2022-10-15T20:26:44.174Z,15.04
2022-10-15T20:29:10.913Z,15.11
2022-10-15T20:31:37.537Z,15.20
2022-10-15T20:34:04.205Z,14.97
2022-10-15T20:36:30.893Z,15.07
2022-10-15T20:38:59.347Z,15.03
2022-10-15T20:41:26.082Z,15.09
2022-10-15T20:43:55.074Z,15.07
2022-10-15T20:46:31.841Z,15.14
2022-10-15T20:49:03.276Z,15.01
2022-10-15T20:51:32.824Z,14.88
2022-10-15T20:53:59.864Z,14.72
2022-10-15T20:56:26.543Z,14.83
2022-10-15T20:58:53.380Z,14.83
2022-10-15T21:01:20.162Z,14.72
2022-10-15T21:03:46.810Z,14.64
2022-10-15T21:06:13.431Z,14.83
2022-10-15T21:08:40.091Z,14.82
2022-10-15T21:11:08.006Z,14.87
2022-10-15T21:13:34.686Z,14.74
2022-10-15T21:16:03.089Z,14.83
2022-10-15T21:18:30.123Z,14.74
2022-10-15T21:21:07.405Z,14.83
2022-10-15T21:23:34.626Z,14.84
2022-10-15T21:26:09.249Z,14.79
2022-10-15T21:28:36.528Z,14.86
2022-10-15T21:31:29.464Z,14.85
2022-10-15T21:33:56.451Z,14.78
2022-10-15T21:36:27.286Z,14.83
2022-10-15T21:38:54.628Z,14.81
2022-10-15T21:41:22.086Z,14.71
2022-10-15T21:46:35.466Z,14.67
2022-10-15T21:49:03.510Z,14.49
2022-10-15T21:51:32.045Z,14.58
2022-10-15T21:53:59.136Z,14.65
2022-10-15T21:56:25.896Z,14.59
2022-10-15T21:58:52.615Z,14.64
2022-10-15T22:01:21.894Z,14.69
2022-10-15T22:03:53.097Z,14.64
2022-10-15T22:06:20.631Z,14.63
2022-10-15T22:08:47.847Z,14.68
2022-10-15T22:11:23.462Z,14.67
2022-10-15T22:13:52.612Z,14.57
2022-10-15T22:16:19.794Z,14.50
2022-10-15T22:18:46.764Z,14.53
2022-10-15T22:21:18.988Z,14.47
2022-10-15T22:23:56.701Z,14.50
2022-10-15T22:26:25.816Z,14.38
2022-10-15T22:28:53.911Z,14.40
2022-10-15T22:31:20.922Z,14.49
2022-10-15T22:33:48.006Z,14.45
2022-10-15T22:36:22.956Z,14.44
2022-10-15T22:38:53.638Z,14.44
2022-10-15T22:41:20.425Z,14.31
2022-10-15T22:43:51.276Z,14.34
2022-10-15T22:46:17.900Z,14.27
2022-10-15T22:48:44.587Z,14.30
2022-10-15T22:51:13.038Z,14.36
2022-10-15T22:53:40.388Z,14.31
2022-10-15T22:56:15.419Z,14.30
2022-10-15T22:58:42.386Z,14.19
2022-10-15T23:01:12.231Z,14.19
2022-10-15T23:03:40.468Z,14.08
2022-10-15T23:06:07.542Z,14.03
2022-10-15T23:08:34.697Z,14.04
2022-10-15T23:11:11.919Z,13.93
2022-10-15T23:13:39.842Z,13.96
2022-10-15T23:16:18.997Z,13.91
2022-10-15T23:18:46.874Z,13.96
2022-10-15T23:21:18.786Z,14.00
2022-10-15T23:23:46.199Z,14.05
2022-10-15T23:26:14.685Z,14.04
2022-10-15T23:28:42.325Z,14.03
2022-10-15T23:31:16.054Z,14.03
2022-10-15T23:33:42.740Z,14.00
2022-10-15T23:36:09.599Z,13.95
2022-10-15T23:38:36.241Z,13.86
2022-10-15T23:41:05.958Z,13.83
2022-10-15T23:43:32.936Z,13.80
2022-10-15T23:46:00.839Z,13.83
2022-10-15T23:48:28.245Z,13.75
2022-10-15T23:50:59.292Z,13.78
2022-10-15T23:53:29.166Z,13.72
2022-10-15T23:55:55.840Z,13.62
2022-10-15T23:58:22.488Z,13.65
